Gregory, South Dakota
Current Conditions -  °F | °C
As of 7:53 AM on Saturday 22 Nov 2014 (Local Time) from KICR Reporting Station
Clear Clear  
Wind Chill: 27°   Ceiling: Unl
Heat Index: 35°   Visibility: 10mi
Dew Point: 24°   Wind: 10mph
Humidity: 64%   Direction: 220°SW
Pressure: 29.64"   Gusts: NA
Location:  43.23°N, 99.43°W
Report Text: KICR 221353Z AUTO 22009KT 10SM CLR 02/M04 A2964 RMK AO2 SLP047 T00171044
Loading
Personal Weather Stations






























Interactive Weather Map New forecast layout! Learn more

10-Day Weather Forecast

Advertisements
Track Severe Weather on mobile